createdAt,value
2023-04-25T00:00:09.971Z,96966.28
2023-04-25T00:02:38.380Z,96964.81
2023-04-25T00:05:17.552Z,96961.47
2023-04-25T00:07:46.139Z,96956.63
2023-04-25T00:10:14.514Z,96950.66
2023-04-25T00:12:43.351Z,96948.19
2023-04-25T00:15:14.559Z,96957.16
2023-04-25T00:17:43.543Z,96948.84
2023-04-25T00:20:14.851Z,96953.19
2023-04-25T00:22:43.207Z,96944.88
2023-04-25T00:25:11.729Z,96951.66
2023-04-25T00:27:40.202Z,96950.69
2023-04-25T00:30:10.464Z,96945.72
2023-04-25T00:32:38.846Z,96943.88
2023-04-25T00:35:08.006Z,96944.88
2023-04-25T00:37:41.019Z,96933.94
2023-04-25T00:40:10.546Z,96929.47
2023-04-25T00:42:39.820Z,96934.94
2023-04-25T00:45:16.466Z,96934.31
2023-04-25T00:47:45.591Z,96941.25
2023-04-25T00:50:18.074Z,96939.59
2023-04-25T00:52:48.123Z,96938.28
2023-04-25T00:55:18.661Z,96932.97
2023-04-25T00:57:47.845Z,96943.75
2023-04-25T01:00:17.333Z,96941.09
2023-04-25T01:02:47.116Z,96937.13
2023-04-25T01:05:15.623Z,96932.00
2023-04-25T01:07:44.012Z,96935.66
2023-04-25T01:10:13.811Z,96932.31
2023-04-25T01:12:42.351Z,96934.13
2023-04-25T01:15:11.460Z,96934.28
2023-04-25T01:17:40.455Z,96928.53
2023-04-25T01:20:11.553Z,96928.53
2023-04-25T01:22:43.062Z,96935.63
2023-04-25T01:25:11.971Z,96932.31
2023-04-25T01:27:40.582Z,96933.31
2023-04-25T01:30:10.549Z,96940.59
2023-04-25T01:32:42.463Z,96938.78
2023-04-25T01:35:14.139Z,96930.16
2023-04-25T01:37:45.105Z,96920.56
2023-04-25T01:40:15.952Z,96916.09
2023-04-25T01:42:45.812Z,96918.06
2023-04-25T01:45:15.238Z,96913.59
2023-04-25T01:47:44.763Z,96915.59
2023-04-25T01:50:16.601Z,96922.69
2023-04-25T01:52:46.513Z,96918.41
2023-04-25T01:55:14.890Z,96930.00
2023-04-25T01:57:43.244Z,96933.81
2023-04-25T02:00:13.474Z,96931.31
2023-04-25T02:02:42.003Z,96924.53
2023-04-25T02:05:10.897Z,96928.19
2023-04-25T02:07:39.646Z,96925.03
2023-04-25T02:10:10.594Z,96926.19
2023-04-25T02:12:41.892Z,96922.06
2023-04-25T02:15:11.728Z,96919.06
2023-04-25T02:17:40.270Z,96926.50
2023-04-25T02:20:09.537Z,96924.19
2023-04-25T02:22:37.958Z,96925.34
2023-04-25T02:25:09.173Z,96920.38
2023-04-25T02:27:37.518Z,96923.38
2023-04-25T02:30:07.660Z,96926.50
2023-04-25T02:32:36.281Z,96917.88
2023-04-25T02:35:05.585Z,96912.09
2023-04-25T02:37:34.164Z,96914.06
2023-04-25T02:40:02.650Z,96908.94
2023-04-25T02:42:32.754Z,96909.09
2023-04-25T02:45:01.458Z,96903.13
2023-04-25T02:47:30.247Z,96902.31
2023-04-25T02:49:58.609Z,96899.66
2023-04-25T02:52:26.980Z,96897.81
2023-04-25T02:54:55.410Z,96892.53
2023-04-25T02:57:23.697Z,96895.34
2023-04-25T02:59:53.344Z,96886.59
2023-04-25T03:02:21.710Z,96892.69
2023-04-25T03:04:50.218Z,96894.53
2023-04-25T03:07:18.694Z,96889.41
2023-04-25T03:09:46.998Z,96890.56
2023-04-25T03:12:15.330Z,96883.59
2023-04-25T03:14:43.611Z,96877.66
2023-04-25T03:17:19.089Z,96877.94
2023-04-25T03:19:47.430Z,96886.84
2023-04-25T03:22:15.764Z,96879.41
2023-04-25T03:24:44.079Z,96880.75
2023-04-25T03:27:12.490Z,96880.91
2023-04-25T03:29:41.472Z,96876.59
2023-04-25T03:32:09.816Z,96879.22
2023-04-25T03:34:39.605Z,96880.06
2023-04-25T03:37:07.972Z,96883.56
2023-04-25T03:39:36.297Z,96880.91
2023-04-25T03:42:04.988Z,96879.91
2023-04-25T03:44:33.333Z,96882.41
2023-04-25T03:47:01.584Z,96884.06
2023-04-25T03:49:29.845Z,96880.75
2023-04-25T03:51:59.572Z,96878.78
2023-04-25T03:54:27.879Z,96889.03
2023-04-25T03:56:56.215Z,96883.09
2023-04-25T03:59:24.480Z,96890.72
2023-04-25T04:01:52.767Z,96888.88
2023-04-25T04:04:21.360Z,96888.72
2023-04-25T04:06:50.083Z,96887.91
2023-04-25T04:09:20.592Z,96890.41
2023-04-25T04:11:51.790Z,96883.44
2023-04-25T04:14:20.161Z,96888.72
2023-04-25T04:16:48.488Z,96890.56
2023-04-25T04:19:17.112Z,96884.59
2023-04-25T04:21:48.725Z,96886.91
2023-04-25T04:24:17.797Z,96884.25
2023-04-25T04:26:47.556Z,96884.09
2023-04-25T04:29:21.742Z,96879.63
2023-04-25T04:31:52.328Z,96872.50
2023-04-25T04:34:21.137Z,96861.06
2023-04-25T04:36:50.385Z,96863.56
2023-04-25T04:39:18.893Z,96861.91
2023-04-25T04:41:48.604Z,96871.34
2023-04-25T04:44:16.911Z,96866.03
2023-04-25T04:46:45.558Z,96875.66
2023-04-25T04:49:14.786Z,96873.81
2023-04-25T04:51:45.606Z,96882.59
2023-04-25T04:54:14.018Z,96879.13
2023-04-25T04:56:49.648Z,96889.72
2023-04-25T04:59:17.969Z,96893.19
2023-04-25T05:01:46.975Z,96888.91
2023-04-25T05:04:15.618Z,96892.38
2023-04-25T05:06:46.365Z,96886.25
2023-04-25T05:09:17.336Z,96892.72
2023-04-25T05:11:45.687Z,96884.09
2023-04-25T05:14:15.414Z,96888.25
2023-04-25T05:16:44.730Z,96886.25
2023-04-25T05:19:13.093Z,96883.44
2023-04-25T05:21:41.345Z,96890.41
2023-04-25T05:24:13.745Z,96889.41
2023-04-25T05:26:42.004Z,96888.25
2023-04-25T05:29:10.316Z,96895.06
2023-04-25T05:31:40.547Z,96889.59
2023-04-25T05:34:09.026Z,96888.25
2023-04-25T05:36:37.489Z,96881.97
2023-04-25T05:39:06.912Z,96888.59
2023-04-25T05:41:35.157Z,96887.28
2023-04-25T05:44:03.473Z,96885.13
2023-04-25T05:46:31.863Z,96876.84
2023-04-25T05:49:01.649Z,96871.84
2023-04-25T05:51:30.002Z,96867.88
2023-04-25T05:53:58.280Z,96870.19
2023-04-25T05:56:26.748Z,96870.69
2023-04-25T05:58:55.097Z,96875.47
2023-04-25T06:01:24.334Z,96869.84
2023-04-25T06:03:53.879Z,96868.50
2023-04-25T06:06:26.681Z,96867.19
2023-04-25T06:08:55.158Z,96869.34
2023-04-25T06:11:23.515Z,96864.34
2023-04-25T06:13:52.261Z,96861.69
2023-04-25T06:16:20.888Z,96862.84
2023-04-25T06:18:49.322Z,96869.47
2023-04-25T06:21:17.677Z,96860.00
2023-04-25T06:23:47.664Z,96863.50
2023-04-25T06:26:16.216Z,96850.34
2023-04-25T06:28:44.544Z,96863.28
2023-04-25T06:31:13.627Z,96855.81
2023-04-25T06:33:42.072Z,96852.50
2023-04-25T06:36:10.700Z,96856.63
2023-04-25T06:38:39.055Z,96859.94
2023-04-25T06:41:08.799Z,96860.72
2023-04-25T06:43:37.116Z,96859.69
2023-04-25T06:46:05.606Z,96855.31
2023-04-25T06:48:33.994Z,96862.25
2023-04-25T06:51:02.229Z,96869.00
2023-04-25T06:53:30.789Z,96866.31
2023-04-25T06:55:59.104Z,96866.59
2023-04-25T06:58:28.797Z,96860.22
2023-04-25T07:00:57.224Z,96860.53
2023-04-25T07:03:26.074Z,96858.16
2023-04-25T07:05:54.448Z,96859.66
2023-04-25T07:08:22.728Z,96860.94
2023-04-25T07:10:51.363Z,96856.91
2023-04-25T07:13:19.761Z,96859.41
2023-04-25T07:15:49.664Z,96853.09
2023-04-25T07:18:17.948Z,96856.19
2023-04-25T07:20:46.489Z,96859.53
2023-04-25T07:23:14.719Z,96847.50
2023-04-25T07:25:43.147Z,96845.38
2023-04-25T07:28:11.448Z,96858.75
2023-04-25T07:30:39.733Z,96859.41
2023-04-25T07:33:09.513Z,96857.59
2023-04-25T07:35:40.556Z,96852.44
2023-04-25T07:38:09.058Z,96864.91
2023-04-25T07:40:37.421Z,96868.59
2023-04-25T07:43:05.844Z,96867.28
2023-04-25T07:45:34.266Z,96866.63
2023-04-25T07:48:02.682Z,96864.31
2023-04-25T07:50:32.676Z,96867.31
2023-04-25T07:53:00.971Z,96862.19
2023-04-25T07:55:29.353Z,96864.19
2023-04-25T07:57:57.767Z,96865.19
2023-04-25T08:00:26.062Z,96858.22
2023-04-25T08:02:54.462Z,96855.41
2023-04-25T08:05:23.559Z,96859.53
2023-04-25T08:07:53.403Z,96864.31
2023-04-25T08:10:21.703Z,96859.69
2023-04-25T08:12:50.053Z,96859.28
2023-04-25T08:15:18.372Z,96860.44
2023-04-25T08:17:46.738Z,96854.22
2023-04-25T08:20:15.287Z,96856.25
2023-04-25T08:22:43.539Z,96851.69
2023-04-25T08:25:13.203Z,96858.41
2023-04-25T08:27:41.532Z,96847.84
2023-04-25T08:30:13.428Z,96852.75
2023-04-25T08:32:41.783Z,96853.84
2023-04-25T08:35:11.377Z,96860.72
2023-04-25T08:37:39.658Z,96861.25
2023-04-25T08:40:17.913Z,96857.69
2023-04-25T08:42:46.581Z,96855.03
2023-04-25T08:45:15.260Z,96857.69
2023-04-25T08:47:45.946Z,96856.59
2023-04-25T08:50:20.360Z,96855.41
2023-04-25T08:52:50.540Z,96856.25
2023-04-25T08:55:20.826Z,96852.69
2023-04-25T08:57:49.698Z,96850.25
2023-04-25T09:00:21.526Z,96859.19
2023-04-25T09:02:50.291Z,96853.28
2023-04-25T09:05:21.642Z,96865.81
2023-04-25T09:07:50.921Z,96857.94
2023-04-25T09:10:20.887Z,96846.91
2023-04-25T09:13:06.088Z,96848.25
2023-04-25T09:15:35.219Z,96849.38
2023-04-25T09:18:03.612Z,96848.28
2023-04-25T09:20:37.677Z,96851.84
2023-04-25T09:23:08.897Z,96845.09
2023-04-25T09:25:40.276Z,96842.88
2023-04-25T09:28:09.224Z,96851.56
2023-04-25T09:30:38.886Z,96849.75
2023-04-25T09:33:09.077Z,96842.41
2023-04-25T09:35:42.785Z,96846.31
2023-04-25T09:38:13.197Z,96841.00
2023-04-25T09:40:48.392Z,96838.72
2023-04-25T09:43:22.766Z,96844.09
2023-04-25T09:45:52.960Z,96852.72
2023-04-25T09:48:22.406Z,96864.44
2023-04-25T09:51:07.959Z,96869.59
2023-04-25T09:53:37.173Z,96872.09
2023-04-25T09:56:09.461Z,96870.44
2023-04-25T09:58:39.497Z,96870.03
2023-04-25T10:01:09.760Z,96871.25
2023-04-25T10:03:40.879Z,96869.81
2023-04-25T10:06:15.395Z,96873.28
2023-04-25T10:08:44.376Z,96865.03
2023-04-25T10:11:16.833Z,96865.19
2023-04-25T10:13:46.669Z,96861.91
2023-04-25T10:16:17.457Z,96847.97
2023-04-25T10:18:45.726Z,96848.97
2023-04-25T10:21:15.195Z,96843.25
2023-04-25T10:23:44.485Z,96854.38
2023-04-25T10:26:15.440Z,96849.84
2023-04-25T10:29:00.635Z,96848.22
2023-04-25T10:31:37.364Z,96842.63
2023-04-25T10:34:07.024Z,96851.09
2023-04-25T10:36:37.990Z,96850.44
2023-04-25T10:39:08.880Z,96846.75
2023-04-25T10:41:50.827Z,96848.41
2023-04-25T10:44:19.240Z,96848.00
2023-04-25T10:46:48.052Z,96860.34
2023-04-25T10:49:33.421Z,96862.41
2023-04-25T10:52:26.951Z,96873.53
2023-04-25T10:54:57.442Z,96880.53
2023-04-25T10:57:41.932Z,96902.13
2023-04-25T11:00:25.783Z,96899.84
2023-04-25T11:03:01.289Z,96902.22
2023-04-25T11:05:47.624Z,96899.47
2023-04-25T11:08:46.560Z,96901.63
2023-04-25T11:11:15.331Z,96901.78
2023-04-25T11:13:45.072Z,96908.69
2023-04-25T11:16:18.085Z,96915.31
2023-04-25T11:18:52.165Z,96907.53
2023-04-25T11:21:20.701Z,96914.22
2023-04-25T11:23:49.248Z,96913.94
2023-04-25T11:26:17.718Z,96920.59
2023-04-25T11:28:49.051Z,96905.75
2023-04-25T11:31:17.382Z,96904.75
2023-04-25T11:33:46.565Z,96902.88
2023-04-25T11:36:14.951Z,96893.53
2023-04-25T11:38:43.349Z,96908.00
2023-04-25T11:41:12.573Z,96900.59
2023-04-25T11:43:43.297Z,96910.28
2023-04-25T11:46:13.564Z,96906.38
2023-04-25T11:48:42.933Z,96899.84
2023-04-25T11:51:11.532Z,96904.59
2023-04-25T11:53:43.936Z,96902.38
2023-04-25T11:56:13.377Z,96899.94
2023-04-25T11:59:07.483Z,96905.09
2023-04-25T12:01:40.132Z,96915.56
2023-04-25T12:04:17.497Z,96921.47
2023-04-25T12:06:49.153Z,96919.19
2023-04-25T12:09:22.370Z,96913.06
2023-04-25T12:11:57.012Z,96909.13
2023-04-25T12:14:28.038Z,96910.50
2023-04-25T12:17:00.664Z,96911.78
2023-04-25T12:19:35.275Z,96902.19
2023-04-25T12:22:05.078Z,96911.25
2023-04-25T12:24:39.308Z,96911.75
2023-04-25T12:27:10.124Z,96900.28
2023-04-25T12:29:49.160Z,96896.25
2023-04-25T12:32:19.678Z,96906.16
2023-04-25T12:34:48.095Z,96900.22
2023-04-25T12:37:16.698Z,96906.03
2023-04-25T12:39:45.346Z,96900.09
2023-04-25T12:42:13.909Z,96889.84
2023-04-25T12:44:42.720Z,96900.66
2023-04-25T12:47:11.595Z,96898.41
2023-04-25T12:49:41.656Z,96908.94
2023-04-25T12:52:09.964Z,96907.75
2023-04-25T12:54:38.246Z,96915.19
2023-04-25T12:57:06.746Z,96913.16
2023-04-25T12:59:35.077Z,96906.81
2023-04-25T13:02:04.017Z,96908.91
2023-04-25T13:04:32.477Z,96904.19
2023-04-25T13:07:02.316Z,96914.06
2023-04-25T13:09:30.746Z,96920.03
2023-04-25T13:11:59.952Z,96918.75
2023-04-25T13:14:28.304Z,96919.34
2023-04-25T13:16:56.736Z,96925.50
2023-04-25T13:19:25.186Z,96928.97
2023-04-25T13:21:53.589Z,96926.88
2023-04-25T13:24:23.402Z,96928.50
2023-04-25T13:26:52.057Z,96923.34
2023-04-25T13:29:20.400Z,96922.34
2023-04-25T13:31:48.903Z,96926.06
2023-04-25T13:34:17.276Z,96923.16
2023-04-25T13:36:46.513Z,96925.44
2023-04-25T13:39:14.926Z,96933.84
2023-04-25T13:41:44.599Z,96942.69
2023-04-25T13:44:12.915Z,96941.25
2023-04-25T13:46:46.937Z,96941.19
2023-04-25T13:49:16.542Z,96941.97
2023-04-25T13:51:44.947Z,96946.69
2023-04-25T13:54:13.257Z,96950.78
2023-04-25T13:56:43.237Z,96944.75
2023-04-25T13:59:13.202Z,96952.69
2023-04-25T14:01:41.524Z,96954.31
2023-04-25T14:04:10.526Z,96957.38
2023-04-25T14:06:38.965Z,96957.44
2023-04-25T14:09:08.228Z,96957.78
2023-04-25T14:11:36.570Z,96956.44
2023-04-25T14:14:05.146Z,96970.75
2023-04-25T14:16:35.743Z,96969.91
2023-04-25T14:19:04.288Z,96968.22
2023-04-25T14:21:34.353Z,96972.72
2023-04-25T14:24:02.769Z,96979.06
2023-04-25T14:26:31.227Z,96976.59
2023-04-25T14:28:59.617Z,96978.88
2023-04-25T14:31:28.220Z,96980.91
2023-04-25T14:33:59.610Z,96979.25
2023-04-25T14:36:28.534Z,96984.22
2023-04-25T14:38:57.162Z,96979.69
2023-04-25T14:41:26.154Z,96981.56
2023-04-25T14:43:54.980Z,96985.69
2023-04-25T14:46:24.408Z,96988.16
2023-04-25T14:48:53.135Z,96994.75
2023-04-25T14:51:22.998Z,96991.06
2023-04-25T14:53:52.239Z,96985.53
2023-04-25T14:56:21.139Z,97000.78
2023-04-25T14:58:49.676Z,97002.69
2023-04-25T15:01:18.209Z,97001.69
2023-04-25T15:03:46.923Z,97004.19
2023-04-25T15:06:15.467Z,97014.66
2023-04-25T15:08:45.569Z,97009.31
2023-04-25T15:11:16.269Z,97014.47
2023-04-25T15:13:45.332Z,97025.16
2023-04-25T15:16:13.801Z,97026.78
2023-04-25T15:18:42.340Z,97034.81
2023-04-25T15:21:10.805Z,97033.78
2023-04-25T15:23:39.288Z,97041.16
2023-04-25T15:26:10.191Z,97042.53
2023-04-25T15:28:38.913Z,97048.72
2023-04-25T15:31:07.343Z,97049.94
2023-04-25T15:33:35.822Z,97049.28
2023-04-25T15:36:06.105Z,97051.13
2023-04-25T15:38:34.875Z,97047.28
2023-04-25T15:41:04.730Z,97050.75
2023-04-25T15:43:38.240Z,97053.41
2023-04-25T15:46:07.097Z,97052.59
2023-04-25T15:48:36.292Z,97055.91
2023-04-25T15:51:04.891Z,97056.47
2023-04-25T15:53:33.572Z,97055.84
2023-04-25T15:56:01.989Z,97071.22
2023-04-25T15:58:30.322Z,97070.56
2023-04-25T16:01:00.316Z,97071.97
2023-04-25T16:03:29.248Z,97075.84
2023-04-25T16:05:57.901Z,97068.59
2023-04-25T16:08:29.689Z,97077.63
2023-04-25T16:10:58.252Z,97076.50
2023-04-25T16:13:27.539Z,97075.22
2023-04-25T16:15:56.086Z,97070.91
2023-04-25T16:18:26.112Z,97077.81
2023-04-25T16:20:54.813Z,97080.47
2023-04-25T16:23:23.372Z,97088.66
2023-04-25T16:25:51.863Z,97080.22
2023-04-25T16:28:20.358Z,97085.94
2023-04-25T16:30:48.793Z,97083.78
2023-04-25T16:33:17.243Z,97090.31
2023-04-25T16:35:47.169Z,97086.38
2023-04-25T16:38:15.615Z,97085.91
2023-04-25T16:40:44.342Z,97099.41
2023-04-25T16:43:12.822Z,97095.09
2023-04-25T16:45:41.304Z,97087.28
2023-04-25T16:48:09.813Z,97102.25
2023-04-25T16:50:38.282Z,97103.09
2023-04-25T16:53:08.122Z,97101.47
2023-04-25T16:55:36.739Z,97121.78
2023-04-25T16:58:05.157Z,97108.81
2023-04-25T17:00:33.648Z,97121.31
2023-04-25T17:03:02.068Z,97109.53
2023-04-25T17:05:30.626Z,97113.88
2023-04-25T17:07:59.047Z,97119.41
2023-04-25T17:10:29.199Z,97124.06
2023-04-25T17:13:03.269Z,97125.28
2023-04-25T17:15:33.108Z,97130.78
2023-04-25T17:18:02.775Z,97134.81
2023-04-25T17:20:34.122Z,97142.38
2023-04-25T17:23:03.154Z,97145.56
2023-04-25T17:25:33.696Z,97153.09
2023-04-25T17:28:02.086Z,97148.31
2023-04-25T17:30:32.149Z,97160.00
2023-04-25T17:33:01.011Z,97164.84
2023-04-25T17:35:30.604Z,97174.84
2023-04-25T17:37:58.874Z,97171.72
2023-04-25T17:40:27.446Z,97175.38
2023-04-25T17:42:57.121Z,97182.91
2023-04-25T17:45:25.489Z,97186.97
2023-04-25T17:47:53.927Z,97192.28
2023-04-25T17:50:22.721Z,97198.16
2023-04-25T17:52:51.206Z,97196.03
2023-04-25T17:55:19.791Z,97195.38
2023-04-25T17:57:48.341Z,97196.38
2023-04-25T18:00:19.684Z,97205.53
2023-04-25T18:02:51.160Z,97201.16
2023-04-25T18:05:20.019Z,97206.63
2023-04-25T18:07:48.409Z,97217.47
2023-04-25T18:10:19.791Z,97217.81
2023-04-25T18:12:48.233Z,97220.84
2023-04-25T18:15:18.370Z,97226.69
2023-04-25T18:17:46.695Z,97231.53
2023-04-25T18:20:19.161Z,97241.72
2023-04-25T18:22:48.014Z,97241.41
2023-04-25T18:25:16.914Z,97244.56
2023-04-25T18:27:45.984Z,97249.91
2023-04-25T18:30:17.650Z,97265.25
2023-04-25T18:32:47.418Z,97263.28
2023-04-25T18:35:15.731Z,97277.91
2023-04-25T18:37:44.423Z,97271.63
2023-04-25T18:40:16.016Z,97280.78
2023-04-25T18:42:44.441Z,97290.75
2023-04-25T18:45:13.246Z,97289.28
2023-04-25T18:47:41.637Z,97295.97
2023-04-25T18:50:12.902Z,97300.78
2023-04-25T18:52:41.894Z,97310.91
2023-04-25T18:55:11.576Z,97312.25
2023-04-25T18:57:39.957Z,97314.25
2023-04-25T19:00:11.156Z,97321.75
2023-04-25T19:02:39.874Z,97328.22
2023-04-25T19:05:22.079Z,97322.75
2023-04-25T19:07:50.608Z,97336.22
2023-04-25T19:10:27.945Z,97339.06
2023-04-25T19:12:56.850Z,97338.72
2023-04-25T19:15:25.723Z,97332.56
2023-04-25T19:17:54.301Z,97341.53
2023-04-25T19:20:24.059Z,97339.22
2023-04-25T19:22:52.847Z,97347.19
2023-04-25T19:25:27.359Z,97353.66
2023-04-25T19:27:55.706Z,97355.81
2023-04-25T19:30:24.318Z,97357.13
2023-04-25T19:32:52.628Z,97357.97
2023-04-25T19:35:21.235Z,97353.00
2023-04-25T19:37:51.110Z,97361.94
2023-04-25T19:40:22.934Z,97359.63
2023-04-25T19:42:51.732Z,97366.09
2023-04-25T19:45:20.193Z,97368.94
2023-04-25T19:47:49.804Z,97371.06
2023-04-25T19:50:19.549Z,97375.56
2023-04-25T19:52:47.893Z,97380.22
2023-04-25T19:55:18.150Z,97369.06
2023-04-25T19:57:46.967Z,97375.22
2023-04-25T20:00:21.533Z,97370.91
2023-04-25T20:02:50.034Z,97366.41
2023-04-25T20:05:19.239Z,97371.06
2023-04-25T20:07:47.617Z,97371.72
2023-04-25T20:10:17.479Z,97371.72
2023-04-25T20:12:46.455Z,97359.44
2023-04-25T20:15:14.856Z,97364.09
2023-04-25T20:17:43.215Z,97378.03
2023-04-25T20:20:13.197Z,97385.19
2023-04-25T20:22:41.826Z,97383.69
2023-04-25T20:25:20.521Z,97382.84
2023-04-25T20:27:49.013Z,97391.66
2023-04-25T20:30:18.540Z,97386.66
2023-04-25T20:32:46.941Z,97392.00
2023-04-25T20:35:24.746Z,97388.16
2023-04-25T20:37:53.637Z,97386.69
2023-04-25T20:40:23.534Z,97396.47
2023-04-25T20:42:52.342Z,97395.78
2023-04-25T20:45:24.557Z,97391.47
2023-04-25T20:47:53.329Z,97387.50
2023-04-25T20:50:21.618Z,97382.50
2023-04-25T20:52:50.046Z,97388.63
2023-04-25T20:55:18.533Z,97387.97
2023-04-25T20:57:48.212Z,97389.78
2023-04-25T21:00:18.920Z,97392.59
2023-04-25T21:02:47.751Z,97395.59
2023-04-25T21:05:16.217Z,97397.56
2023-04-25T21:07:45.559Z,97393.41
2023-04-25T21:10:15.524Z,97389.09
2023-04-25T21:12:47.707Z,97397.22
2023-04-25T21:15:21.381Z,97396.53
2023-04-25T21:17:50.687Z,97391.72
2023-04-25T21:20:21.432Z,97406.66
2023-04-25T21:22:54.239Z,97406.00
2023-04-25T21:25:29.352Z,97399.31
2023-04-25T21:27:58.680Z,97404.63
2023-04-25T21:30:28.707Z,97404.16
2023-04-25T21:32:57.168Z,97407.94
2023-04-25T21:35:25.900Z,97406.44
2023-04-25T21:37:54.347Z,97405.78
2023-04-25T21:40:22.734Z,97403.44
2023-04-25T21:42:53.352Z,97407.06
2023-04-25T21:45:29.136Z,97408.06
2023-04-25T21:47:58.925Z,97409.22
2023-04-25T21:50:27.376Z,97408.38
2023-04-25T21:52:58.899Z,97411.19
2023-04-25T21:55:27.729Z,97408.72
2023-04-25T21:57:56.186Z,97408.03
2023-04-25T22:00:27.471Z,97409.19
2023-04-25T22:02:56.431Z,97403.34
2023-04-25T22:05:29.546Z,97414.97
2023-04-25T22:08:03.149Z,97415.13
2023-04-25T22:10:31.494Z,97419.06
2023-04-25T22:12:59.793Z,97419.22
2023-04-25T22:15:37.007Z,97419.38
2023-04-25T22:18:10.334Z,97424.84
2023-04-25T22:20:40.622Z,97432.09
2023-04-25T22:23:09.574Z,97436.56
2023-04-25T22:25:37.917Z,97430.63
2023-04-25T22:28:09.041Z,97440.22
2023-04-25T22:30:37.904Z,97439.38
2023-04-25T22:33:06.597Z,97431.59
2023-04-25T22:35:35.004Z,97444.84
2023-04-25T22:38:04.706Z,97442.34
2023-04-25T22:40:33.013Z,97442.50
2023-04-25T22:43:03.292Z,97438.19
2023-04-25T22:45:31.904Z,97432.88
2023-04-25T22:48:02.469Z,97448.13
2023-04-25T22:50:31.108Z,97450.78
2023-04-25T22:52:59.466Z,97449.13
2023-04-25T22:55:29.165Z,97446.78
2023-04-25T22:58:00.158Z,97443.47
2023-04-25T23:00:30.373Z,97452.94
2023-04-25T23:02:59.393Z,97460.19
2023-04-25T23:05:33.555Z,97458.53
2023-04-25T23:08:01.907Z,97463.84
2023-04-25T23:10:31.856Z,97463.16
2023-04-25T23:13:00.975Z,97469.31
2023-04-25T23:15:35.474Z,97471.28
2023-04-25T23:18:03.879Z,97474.09
2023-04-25T23:20:33.696Z,97467.75
2023-04-25T23:23:04.906Z,97473.88
2023-04-25T23:25:40.932Z,97468.72
2023-04-25T23:28:09.265Z,97474.19
2023-04-25T23:30:37.634Z,97467.34
2023-04-25T23:33:06.172Z,97472.50
2023-04-25T23:35:37.277Z,97469.03
2023-04-25T23:38:05.639Z,97468.03
2023-04-25T23:40:34.209Z,97468.03
2023-04-25T23:43:03.842Z,97471.16
2023-04-25T23:45:38.592Z,97472.81
2023-04-25T23:48:07.511Z,97473.66
2023-04-25T23:50:36.150Z,97470.31
2023-04-25T23:53:04.654Z,97475.78
2023-04-25T23:55:32.944Z,97470.63
2023-04-25T23:58:01.546Z,97477.91
